sensor_id;sensor_type;location;lat;lon;timestamp;pressure;altitude;pressure_sealevel;temperature;humidity
79136;BME280;68533;51.090;17.216;2023-04-16T00:01:06;99913.75;;;6.84;90.66
79136;BME280;68533;51.090;17.216;2023-04-16T00:03:33;99918.94;;;6.70;91.28
79136;BME280;68533;51.090;17.216;2023-04-16T00:05:59;99914.56;;;6.64;91.39
79136;BME280;68533;51.090;17.216;2023-04-16T00:08:25;99913.44;;;6.55;92.06
79136;BME280;68533;51.090;17.216;2023-04-16T00:10:54;99915.63;;;6.48;92.34
79136;BME280;68533;51.090;17.216;2023-04-16T00:13:21;99918.59;;;6.41;93.07
79136;BME280;68533;51.090;17.216;2023-04-16T00:15:47;99920.47;;;6.31;92.34
79136;BME280;68533;51.090;17.216;2023-04-16T00:18:13;99924.28;;;6.24;91.91
79136;BME280;68533;51.090;17.216;2023-04-16T00:20:39;99911.19;;;6.21;92.17
79136;BME280;68533;51.090;17.216;2023-04-16T00:23:05;99920.66;;;6.09;91.60
79136;BME280;68533;51.090;17.216;2023-04-16T00:25:31;99913.28;;;5.99;93.50
79136;BME280;68533;51.090;17.216;2023-04-16T00:27:57;99912.41;;;5.89;93.53
79136;BME280;68533;51.090;17.216;2023-04-16T00:30:23;99913.69;;;5.81;93.55
79136;BME280;68533;51.090;17.216;2023-04-16T00:32:49;99915.78;;;5.64;94.26
79136;BME280;68533;51.090;17.216;2023-04-16T00:35:15;99909.72;;;5.57;94.25
79136;BME280;68533;51.090;17.216;2023-04-16T00:37:41;99914.66;;;5.60;95.24
79136;BME280;68533;51.090;17.216;2023-04-16T00:40:07;99920.88;;;5.50;94.35
79136;BME280;68533;51.090;17.216;2023-04-16T00:42:33;99922.44;;;5.41;94.20
79136;BME280;68533;51.090;17.216;2023-04-16T00:45:01;99922.97;;;5.38;94.06
79136;BME280;68533;51.090;17.216;2023-04-16T00:47:27;99928.41;;;5.33;94.79
79136;BME280;68533;51.090;17.216;2023-04-16T00:49:54;99917.16;;;5.24;94.72
79136;BME280;68533;51.090;17.216;2023-04-16T00:52:20;99926.72;;;5.27;95.14
79136;BME280;68533;51.090;17.216;2023-04-16T00:54:46;99925.03;;;5.21;94.48
79136;BME280;68533;51.090;17.216;2023-04-16T00:57:13;99929.31;;;5.12;95.04
79136;BME280;68533;51.090;17.216;2023-04-16T00:59:40;99925.97;;;5.04;95.69
79136;BME280;68533;51.090;17.216;2023-04-16T01:02:06;99929.28;;;5.06;95.93
79136;BME280;68533;51.090;17.216;2023-04-16T01:04:33;99924.91;;;5.05;96.18
79136;BME280;68533;51.090;17.216;2023-04-16T01:06:59;99925.97;;;5.04;95.91
79136;BME280;68533;51.090;17.216;2023-04-16T01:09:25;99931.50;;;5.10;96.63
79136;BME280;68533;51.090;17.216;2023-04-16T01:11:51;99927.09;;;5.03;96.26
79136;BME280;68533;51.090;17.216;2023-04-16T01:14:17;99934.09;;;4.94;95.84
79136;BME280;68533;51.090;17.216;2023-04-16T01:16:44;99932.69;;;4.92;95.75
79136;BME280;68533;51.090;17.216;2023-04-16T01:19:10;99932.66;;;4.87;95.95
79136;BME280;68533;51.090;17.216;2023-04-16T01:21:36;99944.59;;;4.81;96.00
79136;BME280;68533;51.090;17.216;2023-04-16T01:24:03;99947.56;;;4.79;95.92
79136;BME280;68533;51.090;17.216;2023-04-16T01:26:30;99945.59;;;4.75;96.46
79136;BME280;68533;51.090;17.216;2023-04-16T01:28:56;99946.78;;;4.84;96.42
79136;BME280;68533;51.090;17.216;2023-04-16T01:31:22;99945.81;;;4.95;96.34
79136;BME280;68533;51.090;17.216;2023-04-16T01:33:48;99939.97;;;4.81;96.11
79136;BME280;68533;51.090;17.216;2023-04-16T01:36:13;99949.22;;;4.80;96.89
79136;BME280;68533;51.090;17.216;2023-04-16T01:38:40;99951.16;;;4.85;96.51
79136;BME280;68533;51.090;17.216;2023-04-16T01:41:05;99953.38;;;4.88;95.56
79136;BME280;68533;51.090;17.216;2023-04-16T01:43:32;99953.88;;;4.85;95.12
79136;BME280;68533;51.090;17.216;2023-04-16T01:46:12;99959.69;;;4.93;94.84
79136;BME280;68533;51.090;17.216;2023-04-16T01:48:40;99947.84;;;4.83;95.91
79136;BME280;68533;51.090;17.216;2023-04-16T01:51:06;99951.66;;;4.82;95.25
79136;BME280;68533;51.090;17.216;2023-04-16T01:53:33;99946.63;;;4.68;95.81
79136;BME280;68533;51.090;17.216;2023-04-16T01:55:58;99954.44;;;4.60;95.49
79136;BME280;68533;51.090;17.216;2023-04-16T01:58:27;99955.16;;;4.50;95.27
79136;BME280;68533;51.090;17.216;2023-04-16T02:00:54;99955.28;;;4.39;94.73
79136;BME280;68533;51.090;17.216;2023-04-16T02:03:21;99947.09;;;4.34;94.67
79136;BME280;68533;51.090;17.216;2023-04-16T02:05:50;99951.41;;;4.29;95.23
79136;BME280;68533;51.090;17.216;2023-04-16T02:08:16;99947.97;;;4.17;95.47
79136;BME280;68533;51.090;17.216;2023-04-16T02:10:48;99951.47;;;4.13;95.00
79136;BME280;68533;51.090;17.216;2023-04-16T02:13:15;99957.59;;;4.03;95.56
79136;BME280;68533;51.090;17.216;2023-04-16T02:15:46;99962.78;;;4.05;95.58
79136;BME280;68533;51.090;17.216;2023-04-16T02:18:13;99961.47;;;4.07;95.62
79136;BME280;68533;51.090;17.216;2023-04-16T02:20:40;99966.75;;;3.97;95.18
79136;BME280;68533;51.090;17.216;2023-04-16T02:23:06;99960.34;;;3.86;96.00
79136;BME280;68533;51.090;17.216;2023-04-16T02:25:37;99968.59;;;3.92;96.44
79136;BME280;68533;51.090;17.216;2023-04-16T02:28:09;99972.50;;;4.01;96.60
79136;BME280;68533;51.090;17.216;2023-04-16T02:30:36;99974.78;;;4.09;96.90
79136;BME280;68533;51.090;17.216;2023-04-16T02:33:07;99974.28;;;3.90;96.30
79136;BME280;68533;51.090;17.216;2023-04-16T02:35:34;99967.97;;;3.84;97.29
79136;BME280;68533;51.090;17.216;2023-04-16T02:38:01;99967.06;;;3.79;97.45
79136;BME280;68533;51.090;17.216;2023-04-16T02:40:27;99968.94;;;3.78;97.75
79136;BME280;68533;51.090;17.216;2023-04-16T02:42:53;99974.69;;;3.99;97.72
79136;BME280;68533;51.090;17.216;2023-04-16T02:45:20;99982.56;;;4.00;98.07
79136;BME280;68533;51.090;17.216;2023-04-16T02:47:47;99987.53;;;4.03;97.29
79136;BME280;68533;51.090;17.216;2023-04-16T02:50:14;99989.16;;;4.04;97.83
79136;BME280;68533;51.090;17.216;2023-04-16T02:52:40;99988.09;;;4.05;97.48
79136;BME280;68533;51.090;17.216;2023-04-16T02:55:07;99980.06;;;4.15;98.00
79136;BME280;68533;51.090;17.216;2023-04-16T02:57:33;99988.22;;;4.15;97.52
79136;BME280;68533;51.090;17.216;2023-04-16T02:59:59;99986.84;;;4.13;98.12
79136;BME280;68533;51.090;17.216;2023-04-16T03:02:26;99991.28;;;4.19;98.00
79136;BME280;68533;51.090;17.216;2023-04-16T03:04:54;99989.13;;;4.21;98.17
79136;BME280;68533;51.090;17.216;2023-04-16T03:07:20;99990.44;;;4.18;97.58
79136;BME280;68533;51.090;17.216;2023-04-16T03:09:48;99990.94;;;4.15;98.39
79136;BME280;68533;51.090;17.216;2023-04-16T03:12:14;100004.53;;;4.15;98.23
79136;BME280;68533;51.090;17.216;2023-04-16T03:14:39;100000.75;;;4.16;98.07
79136;BME280;68533;51.090;17.216;2023-04-16T03:17:06;100006.19;;;4.16;98.39
79136;BME280;68533;51.090;17.216;2023-04-16T03:19:31;99997.53;;;4.19;97.82
79136;BME280;68533;51.090;17.216;2023-04-16T03:21:57;100009.00;;;4.21;98.20
79136;BME280;68533;51.090;17.216;2023-04-16T03:24:24;99997.28;;;4.21;98.00
79136;BME280;68533;51.090;17.216;2023-04-16T03:26:55;100006.91;;;4.28;98.14
79136;BME280;68533;51.090;17.216;2023-04-16T03:29:21;100013.72;;;4.31;98.48
79136;BME280;68533;51.090;17.216;2023-04-16T03:31:53;100006.59;;;4.25;97.88
79136;BME280;68533;51.090;17.216;2023-04-16T03:34:20;100016.06;;;4.22;98.25
79136;BME280;68533;51.090;17.216;2023-04-16T03:36:46;100018.16;;;4.15;98.01
79136;BME280;68533;51.090;17.216;2023-04-16T03:39:12;100023.94;;;4.19;98.05
79136;BME280;68533;51.090;17.216;2023-04-16T03:41:38;100022.28;;;4.18;98.06
79136;BME280;68533;51.090;17.216;2023-04-16T03:44:04;100026.94;;;4.22;98.17
79136;BME280;68533;51.090;17.216;2023-04-16T03:46:30;100038.94;;;4.21;98.52
79136;BME280;68533;51.090;17.216;2023-04-16T03:48:56;100030.69;;;4.16;97.88
79136;BME280;68533;51.090;17.216;2023-04-16T03:51:25;100036.13;;;4.16;97.47
79136;BME280;68533;51.090;17.216;2023-04-16T03:53:54;100040.31;;;4.24;97.70
79136;BME280;68533;51.090;17.216;2023-04-16T03:56:23;100032.78;;;4.31;97.33
79136;BME280;68533;51.090;17.216;2023-04-16T03:58:49;100044.19;;;4.28;97.12
79136;BME280;68533;51.090;17.216;2023-04-16T04:01:15;100046.34;;;4.26;97.17
79136;BME280;68533;51.090;17.216;2023-04-16T04:03:41;100053.03;;;4.18;97.39
79136;BME280;68533;51.090;17.216;2023-04-16T04:06:08;100062.22;;;4.12;97.34
79136;BME280;68533;51.090;17.216;2023-04-16T04:08:34;100066.66;;;4.18;97.98
79136;BME280;68533;51.090;17.216;2023-04-16T04:11:00;100057.28;;;4.31;96.80
79136;BME280;68533;51.090;17.216;2023-04-16T04:13:26;100062.09;;;4.46;96.68
79136;BME280;68533;51.090;17.216;2023-04-16T04:15:53;100060.47;;;4.45;97.00
79136;BME280;68533;51.090;17.216;2023-04-16T04:18:19;100062.50;;;4.54;96.49
79136;BME280;68533;51.090;17.216;2023-04-16T04:20:45;100066.19;;;4.65;96.57
79136;BME280;68533;51.090;17.216;2023-04-16T04:23:11;100066.56;;;4.74;96.29
79136;BME280;68533;51.090;17.216;2023-04-16T04:25:39;100063.63;;;4.80;96.37
79136;BME280;68533;51.090;17.216;2023-04-16T04:28:06;100071.16;;;4.95;96.09
79136;BME280;68533;51.090;17.216;2023-04-16T04:30:32;100064.34;;;4.97;95.68
79136;BME280;68533;51.090;17.216;2023-04-16T04:33:00;100068.53;;;5.05;95.79
79136;BME280;68533;51.090;17.216;2023-04-16T04:35:27;100069.13;;;5.12;95.63
79136;BME280;68533;51.090;17.216;2023-04-16T04:37:55;100072.47;;;5.19;95.31
79136;BME280;68533;51.090;17.216;2023-04-16T04:40:22;100075.53;;;5.23;95.75
79136;BME280;68533;51.090;17.216;2023-04-16T04:42:47;100069.81;;;5.24;95.32
79136;BME280;68533;51.090;17.216;2023-04-16T04:45:14;100073.41;;;5.30;95.95
79136;BME280;68533;51.090;17.216;2023-04-16T04:47:40;100080.56;;;5.36;95.53
79136;BME280;68533;51.090;17.216;2023-04-16T04:50:07;100074.97;;;5.47;94.82
79136;BME280;68533;51.090;17.216;2023-04-16T04:52:33;100085.13;;;5.57;94.95
79136;BME280;68533;51.090;17.216;2023-04-16T04:55:03;100081.34;;;5.63;94.68
79136;BME280;68533;51.090;17.216;2023-04-16T04:57:28;100082.50;;;5.67;94.86
79136;BME280;68533;51.090;17.216;2023-04-16T04:59:55;100092.13;;;5.80;94.05
79136;BME280;68533;51.090;17.216;2023-04-16T05:02:22;100095.44;;;5.82;93.61
79136;BME280;68533;51.090;17.216;2023-04-16T05:04:48;100103.91;;;5.85;93.39
79136;BME280;68533;51.090;17.216;2023-04-16T05:07:14;100098.41;;;5.80;94.47
79136;BME280;68533;51.090;17.216;2023-04-16T05:09:41;100102.91;;;5.92;94.03
79136;BME280;68533;51.090;17.216;2023-04-16T05:12:06;100106.97;;;6.26;93.57
79136;BME280;68533;51.090;17.216;2023-04-16T05:14:37;100106.91;;;6.63;92.34
79136;BME280;68533;51.090;17.216;2023-04-16T05:17:06;100111.31;;;6.69;91.80
79136;BME280;68533;51.090;17.216;2023-04-16T05:19:32;100113.47;;;6.67;92.11
79136;BME280;68533;51.090;17.216;2023-04-16T05:21:58;100116.00;;;6.74;90.94
79136;BME280;68533;51.090;17.216;2023-04-16T05:24:24;100125.84;;;6.80;91.05
79136;BME280;68533;51.090;17.216;2023-04-16T05:26:50;100122.59;;;6.88;90.73
79136;BME280;68533;51.090;17.216;2023-04-16T05:29:19;100126.75;;;7.06;90.95
79136;BME280;68533;51.090;17.216;2023-04-16T05:31:45;100134.13;;;7.05;89.86
79136;BME280;68533;51.090;17.216;2023-04-16T05:34:13;100132.78;;;7.08;89.64
79136;BME280;68533;51.090;17.216;2023-04-16T05:36:39;100135.09;;;7.46;89.57
79136;BME280;68533;51.090;17.216;2023-04-16T05:39:06;100131.03;;;7.99;87.90
79136;BME280;68533;51.090;17.216;2023-04-16T05:41:33;100144.69;;;8.45;86.25
79136;BME280;68533;51.090;17.216;2023-04-16T05:44:16;100139.63;;;8.98;83.10
79136;BME280;68533;51.090;17.216;2023-04-16T05:46:44;100144.75;;;9.68;81.38
79136;BME280;68533;51.090;17.216;2023-04-16T05:49:15;100146.19;;;9.95;80.00
79136;BME280;68533;51.090;17.216;2023-04-16T05:51:43;100155.84;;;10.26;78.00
79136;BME280;68533;51.090;17.216;2023-04-16T05:54:32;100156.81;;;10.06;78.52
79136;BME280;68533;51.090;17.216;2023-04-16T05:57:00;100168.38;;;10.03;78.14
79136;BME280;68533;51.090;17.216;2023-04-16T05:59:49;100165.75;;;9.44;80.95
79136;BME280;68533;51.090;17.216;2023-04-16T06:02:23;100168.75;;;9.87;78.58
79136;BME280;68533;51.090;17.216;2023-04-16T06:04:56;100170.00;;;10.43;75.86
79136;BME280;68533;51.090;17.216;2023-04-16T06:07:27;100170.34;;;10.32;76.55
79136;BME280;68533;51.090;17.216;2023-04-16T06:09:53;100169.94;;;10.15;77.78
79136;BME280;68533;51.090;17.216;2023-04-16T06:12:19;100170.16;;;10.81;75.87
79136;BME280;68533;51.090;17.216;2023-04-16T06:14:45;100185.22;;;12.11;70.82
79136;BME280;68533;51.090;17.216;2023-04-16T06:17:11;100185.13;;;12.16;69.63
79136;BME280;68533;51.090;17.216;2023-04-16T06:19:40;100185.00;;;11.70;70.21
79136;BME280;68533;51.090;17.216;2023-04-16T06:22:09;100193.28;;;11.89;70.03
79136;BME280;68533;51.090;17.216;2023-04-16T06:24:42;100188.44;;;12.18;67.95
79136;BME280;68533;51.090;17.216;2023-04-16T06:27:09;100189.59;;;13.73;67.58
79136;BME280;68533;51.090;17.216;2023-04-16T06:29:41;100187.91;;;14.21;61.84
79136;BME280;68533;51.090;17.216;2023-04-16T06:32:09;100193.56;;;14.61;63.61
79136;BME280;68533;51.090;17.216;2023-04-16T06:34:37;100197.53;;;15.39;62.00
79136;BME280;68533;51.090;17.216;2023-04-16T06:37:03;100192.09;;;15.82;57.70
79136;BME280;68533;51.090;17.216;2023-04-16T06:39:32;100200.41;;;15.73;59.19
79136;BME280;68533;51.090;17.216;2023-04-16T06:41:59;100201.25;;;15.91;57.39
79136;BME280;68533;51.090;17.216;2023-04-16T06:44:26;100202.06;;;16.26;56.35
79136;BME280;68533;51.090;17.216;2023-04-16T06:46:54;100204.47;;;16.53;54.51
79136;BME280;68533;51.090;17.216;2023-04-16T06:49:21;100202.41;;;17.05;54.05
79136;BME280;68533;51.090;17.216;2023-04-16T06:51:50;100208.13;;;17.09;53.24
79136;BME280;68533;51.090;17.216;2023-04-16T06:54:16;100208.41;;;16.01;55.81
79136;BME280;68533;51.090;17.216;2023-04-16T06:56:46;100216.25;;;16.33;55.80
79136;BME280;68533;51.090;17.216;2023-04-16T06:59:18;100215.13;;;16.34;52.65
79136;BME280;68533;51.090;17.216;2023-04-16T07:01:44;100220.09;;;17.39;52.95
79136;BME280;68533;51.090;17.216;2023-04-16T07:04:13;100219.22;;;17.47;51.58
79136;BME280;68533;51.090;17.216;2023-04-16T07:06:50;100217.31;;;17.39;53.12
79136;BME280;68533;51.090;17.216;2023-04-16T07:09:19;100223.97;;;17.08;51.50
79136;BME280;68533;51.090;17.216;2023-04-16T07:11:45;100220.00;;;15.85;54.59
79136;BME280;68533;51.090;17.216;2023-04-16T07:14:18;100227.03;;;15.91;54.13
79136;BME280;68533;51.090;17.216;2023-04-16T07:17:04;100225.88;;;16.44;54.13
79136;BME280;68533;51.090;17.216;2023-04-16T07:19:33;100228.28;;;16.89;53.96
79136;BME280;68533;51.090;17.216;2023-04-16T07:21:59;100235.50;;;16.47;52.94
79136;BME280;68533;51.090;17.216;2023-04-16T07:24:29;100234.66;;;15.77;57.72
79136;BME280;68533;51.090;17.216;2023-04-16T07:27:06;100233.53;;;16.39;53.60
79136;BME280;68533;51.090;17.216;2023-04-16T07:29:48;100238.28;;;16.55;53.55
79136;BME280;68533;51.090;17.216;2023-04-16T07:32:15;100238.53;;;17.43;51.86
79136;BME280;68533;51.090;17.216;2023-04-16T07:34:44;100243.22;;;17.90;49.14
79136;BME280;68533;51.090;17.216;2023-04-16T07:37:11;100244.91;;;17.82;48.33
79136;BME280;68533;51.090;17.216;2023-04-16T07:39:38;100247.56;;;17.40;49.79
79136;BME280;68533;51.090;17.216;2023-04-16T07:42:04;100252.66;;;16.75;51.39
79136;BME280;68533;51.090;17.216;2023-04-16T07:44:33;100253.41;;;17.48;51.00
79136;BME280;68533;51.090;17.216;2023-04-16T07:47:00;100255.56;;;16.01;53.00
79136;BME280;68533;51.090;17.216;2023-04-16T07:49:27;100256.13;;;14.93;57.55
79136;BME280;68533;51.090;17.216;2023-04-16T07:51:55;100253.94;;;16.00;53.68
79136;BME280;68533;51.090;17.216;2023-04-16T07:54:21;100250.84;;;16.87;50.58
79136;BME280;68533;51.090;17.216;2023-04-16T07:56:47;100258.84;;;17.73;50.75
79136;BME280;68533;51.090;17.216;2023-04-16T07:59:17;100253.13;;;18.41;49.04
79136;BME280;68533;51.090;17.216;2023-04-16T08:01:47;100257.72;;;18.66;47.45
79136;BME280;68533;51.090;17.216;2023-04-16T08:04:16;100259.09;;;19.05;46.59
79136;BME280;68533;51.090;17.216;2023-04-16T08:06:52;100258.63;;;19.48;45.31
79136;BME280;68533;51.090;17.216;2023-04-16T08:09:19;100256.19;;;20.47;44.67
79136;BME280;68533;51.090;17.216;2023-04-16T08:11:49;100263.97;;;19.90;44.92
79136;BME280;68533;51.090;17.216;2023-04-16T08:14:16;100262.16;;;20.34;44.66
79136;BME280;68533;51.090;17.216;2023-04-16T08:16:42;100267.78;;;19.97;42.39
79136;BME280;68533;51.090;17.216;2023-04-16T08:19:11;100260.25;;;19.73;45.00
79136;BME280;68533;51.090;17.216;2023-04-16T08:21:37;100265.59;;;19.54;45.71
79136;BME280;68533;51.090;17.216;2023-04-16T08:24:04;100266.59;;;19.37;44.16
79136;BME280;68533;51.090;17.216;2023-04-16T08:26:30;100263.84;;;19.50;41.54
79136;BME280;68533;51.090;17.216;2023-04-16T08:28:57;100265.81;;;19.98;41.64
79136;BME280;68533;51.090;17.216;2023-04-16T08:31:23;100269.69;;;18.79;46.33
79136;BME280;68533;51.090;17.216;2023-04-16T08:33:54;100272.19;;;18.92;42.49
79136;BME280;68533;51.090;17.216;2023-04-16T08:36:20;100284.81;;;20.32;42.29
79136;BME280;68533;51.090;17.216;2023-04-16T08:38:46;100288.13;;;20.10;42.03
79136;BME280;68533;51.090;17.216;2023-04-16T08:41:12;100284.72;;;20.69;39.38
79136;BME280;68533;51.090;17.216;2023-04-16T08:43:43;100284.94;;;20.24;41.86
79136;BME280;68533;51.090;17.216;2023-04-16T08:46:13;100289.41;;;20.65;39.09
79136;BME280;68533;51.090;17.216;2023-04-16T08:48:46;100299.22;;;20.59;40.36
79136;BME280;68533;51.090;17.216;2023-04-16T08:51:16;100304.19;;;19.76;41.19
79136;BME280;68533;51.090;17.216;2023-04-16T08:54:07;100299.25;;;20.46;39.70
79136;BME280;68533;51.090;17.216;2023-04-16T08:56:37;100308.56;;;20.50;41.05
79136;BME280;68533;51.090;17.216;2023-04-16T08:59:12;100305.31;;;21.79;35.65
79136;BME280;68533;51.090;17.216;2023-04-16T09:01:38;100305.69;;;21.62;38.21
79136;BME280;68533;51.090;17.216;2023-04-16T09:04:07;100303.69;;;21.62;36.50
79136;BME280;68533;51.090;17.216;2023-04-16T09:06:36;100305.22;;;20.08;40.24
79136;BME280;68533;51.090;17.216;2023-04-16T09:09:03;100307.97;;;20.33;40.84
79136;BME280;68533;51.090;17.216;2023-04-16T09:11:32;100314.38;;;20.45;40.89
79136;BME280;68533;51.090;17.216;2023-04-16T09:14:08;100310.53;;;20.26;38.32
79136;BME280;68533;51.090;17.216;2023-04-16T09:16:35;100313.59;;;21.01;40.03
79136;BME280;68533;51.090;17.216;2023-04-16T09:19:02;100314.31;;;20.70;39.64
79136;BME280;68533;51.090;17.216;2023-04-16T09:21:28;100312.94;;;18.64;42.92
79136;BME280;68533;51.090;17.216;2023-04-16T09:23:57;100311.97;;;18.81;42.56
79136;BME280;68533;51.090;17.216;2023-04-16T09:26:24;100307.34;;;18.97;45.25
79136;BME280;68533;51.090;17.216;2023-04-16T09:28:53;100308.91;;;20.77;40.60
79136;BME280;68533;51.090;17.216;2023-04-16T09:31:23;100311.41;;;20.94;37.93
79136;BME280;68533;51.090;17.216;2023-04-16T09:34:09;100320.22;;;21.83;37.66
79136;BME280;68533;51.090;17.216;2023-04-16T09:36:38;100327.25;;;21.93;38.41
79136;BME280;68533;51.090;17.216;2023-04-16T09:39:17;100325.69;;;21.33;37.69
79136;BME280;68533;51.090;17.216;2023-04-16T09:41:44;100320.09;;;21.95;36.08
79136;BME280;68533;51.090;17.216;2023-04-16T09:44:16;100323.63;;;23.16;33.61
79136;BME280;68533;51.090;17.216;2023-04-16T09:46:42;100334.66;;;21.54;38.32
79136;BME280;68533;51.090;17.216;2023-04-16T09:49:16;100334.72;;;21.42;38.12
79136;BME280;68533;51.090;17.216;2023-04-16T09:51:47;100338.69;;;22.35;34.46
79136;BME280;68533;51.090;17.216;2023-04-16T09:54:18;100331.84;;;20.42;37.77
79136;BME280;68533;51.090;17.216;2023-04-16T09:56:47;100337.00;;;22.15;36.36
79136;BME280;68533;51.090;17.216;2023-04-16T09:59:19;100341.13;;;23.10;35.90
79136;BME280;68533;51.090;17.216;2023-04-16T10:01:48;100339.63;;;23.16;32.13
79136;BME280;68533;51.090;17.216;2023-04-16T10:04:18;100344.94;;;22.82;34.09
79136;BME280;68533;51.090;17.216;2023-04-16T10:07:04;100338.38;;;23.33;34.13
79136;BME280;68533;51.090;17.216;2023-04-16T10:09:38;100342.03;;;22.25;34.19
79136;BME280;68533;51.090;17.216;2023-04-16T10:12:07;100342.41;;;22.58;35.89
79136;BME280;68533;51.090;17.216;2023-04-16T10:14:33;100338.25;;;22.87;34.17
79136;BME280;68533;51.090;17.216;2023-04-16T10:16:59;100334.47;;;22.10;36.86
79136;BME280;68533;51.090;17.216;2023-04-16T10:19:26;100331.06;;;21.85;38.63
79136;BME280;68533;51.090;17.216;2023-04-16T10:21:54;100330.78;;;22.75;35.22
79136;BME280;68533;51.090;17.216;2023-04-16T10:24:21;100343.97;;;23.33;36.84
79136;BME280;68533;51.090;17.216;2023-04-16T10:26:51;100333.72;;;23.21;35.03
79136;BME280;68533;51.090;17.216;2023-04-16T10:29:21;100339.09;;;22.72;36.58
79136;BME280;68533;51.090;17.216;2023-04-16T10:31:48;100337.41;;;21.22;36.77
79136;BME280;68533;51.090;17.216;2023-04-16T10:34:16;100342.44;;;21.05;38.82
79136;BME280;68533;51.090;17.216;2023-04-16T10:36:47;100341.59;;;21.60;38.88
79136;BME280;68533;51.090;17.216;2023-04-16T10:39:22;100336.16;;;21.36;36.84
79136;BME280;68533;51.090;17.216;2023-04-16T10:41:50;100334.91;;;21.96;37.11
79136;BME280;68533;51.090;17.216;2023-04-16T10:44:33;100338.16;;;21.66;37.90
79136;BME280;68533;51.090;17.216;2023-04-16T10:46:59;100339.03;;;20.83;39.71
79136;BME280;68533;51.090;17.216;2023-04-16T10:49:26;100338.50;;;21.34;37.65
79136;BME280;68533;51.090;17.216;2023-04-16T10:54:22;100340.44;;;20.01;41.30
79136;BME280;68533;51.090;17.216;2023-04-16T10:56:49;100346.72;;;21.42;36.56
79136;BME280;68533;51.090;17.216;2023-04-16T10:59:20;100345.94;;;21.89;39.61
79136;BME280;68533;51.090;17.216;2023-04-16T11:01:49;100340.88;;;21.79;37.16
79136;BME280;68533;51.090;17.216;2023-04-16T11:10:03;100349.06;;;22.34;35.91
79136;BME280;68533;51.090;17.216;2023-04-16T11:12:34;100338.84;;;20.12;37.68
79136;BME280;68533;51.090;17.216;2023-04-16T11:15:16;100334.06;;;19.19;41.75
79136;BME280;68533;51.090;17.216;2023-04-16T11:17:49;100334.66;;;19.82;39.45
79136;BME280;68533;51.090;17.216;2023-04-16T11:20:27;100338.34;;;20.59;42.08
79136;BME280;68533;51.090;17.216;2023-04-16T11:22:55;100338.75;;;20.73;37.34
79136;BME280;68533;51.090;17.216;2023-04-16T11:27:49;100331.38;;;20.40;34.25
79136;BME280;68533;51.090;17.216;2023-04-16T11:30:17;100335.19;;;22.22;33.61
79136;BME280;68533;51.090;17.216;2023-04-16T11:32:44;100334.53;;;20.79;33.74
79136;BME280;68533;51.090;17.216;2023-04-16T11:35:19;100334.50;;;20.39;35.40
79136;BME280;68533;51.090;17.216;2023-04-16T11:37:45;100337.47;;;21.85;36.98
79136;BME280;68533;51.090;17.216;2023-04-16T11:40:13;100335.66;;;21.93;35.68
79136;BME280;68533;51.090;17.216;2023-04-16T11:42:40;100346.00;;;22.24;35.05
79136;BME280;68533;51.090;17.216;2023-04-16T11:45:10;100352.84;;;22.42;34.18
79136;BME280;68533;51.090;17.216;2023-04-16T11:50:18;100346.47;;;21.79;36.07
79136;BME280;68533;51.090;17.216;2023-04-16T11:52:44;100345.22;;;19.31;38.58
79136;BME280;68533;51.090;17.216;2023-04-16T11:55:12;100338.25;;;19.82;38.81
79136;BME280;68533;51.090;17.216;2023-04-16T11:57:38;100345.06;;;19.15;42.12
79136;BME280;68533;51.090;17.216;2023-04-16T12:00:05;100340.19;;;19.57;41.45
79136;BME280;68533;51.090;17.216;2023-04-16T12:02:48;100348.94;;;19.56;40.01
79136;BME280;68533;51.090;17.216;2023-04-16T12:05:30;100348.59;;;18.71;43.21
79136;BME280;68533;51.090;17.216;2023-04-16T12:08:08;100341.31;;;17.78;45.02
79136;BME280;68533;51.090;17.216;2023-04-16T12:10:54;100343.13;;;16.93;46.67
79136;BME280;68533;51.090;17.216;2023-04-16T12:13:20;100344.44;;;16.78;50.21
79136;BME280;68533;51.090;17.216;2023-04-16T12:15:47;100344.69;;;17.37;48.73
79136;BME280;68533;51.090;17.216;2023-04-16T12:18:14;100357.31;;;17.17;49.01
79136;BME280;68533;51.090;17.216;2023-04-16T12:20:42;100342.91;;;17.32;46.41
79136;BME280;68533;51.090;17.216;2023-04-16T12:23:09;100340.13;;;17.24;43.39
79136;BME280;68533;51.090;17.216;2023-04-16T12:25:36;100342.09;;;16.20;49.98
79136;BME280;68533;51.090;17.216;2023-04-16T12:28:02;100343.22;;;15.62;50.16
79136;BME280;68533;51.090;17.216;2023-04-16T12:30:49;100335.06;;;16.14;49.10
79136;BME280;68533;51.090;17.216;2023-04-16T12:33:19;100334.47;;;15.77;47.85
79136;BME280;68533;51.090;17.216;2023-04-16T12:35:47;100328.69;;;15.34;48.25
79136;BME280;68533;51.090;17.216;2023-04-16T12:38:14;100328.00;;;15.29;47.64
79136;BME280;68533;51.090;17.216;2023-04-16T12:40:40;100333.00;;;15.18;49.27
79136;BME280;68533;51.090;17.216;2023-04-16T12:43:06;100328.34;;;15.05;49.46
79136;BME280;68533;51.090;17.216;2023-04-16T12:45:38;100331.56;;;14.76;49.21
79136;BME280;68533;51.090;17.216;2023-04-16T12:48:05;100329.63;;;14.76;49.70
79136;BME280;68533;51.090;17.216;2023-04-16T12:50:31;100333.53;;;14.75;50.90
79136;BME280;68533;51.090;17.216;2023-04-16T12:52:58;100329.38;;;14.64;49.38
79136;BME280;68533;51.090;17.216;2023-04-16T12:55:24;100330.44;;;14.77;48.03
79136;BME280;68533;51.090;17.216;2023-04-16T12:57:53;100327.38;;;15.32;47.50
79136;BME280;68533;51.090;17.216;2023-04-16T13:00:20;100335.47;;;16.73;46.17
79136;BME280;68533;51.090;17.216;2023-04-16T13:02:46;100341.91;;;17.83;40.75
79136;BME280;68533;51.090;17.216;2023-04-16T13:05:12;100333.25;;;17.85;41.10
79136;BME280;68533;51.090;17.216;2023-04-16T13:07:43;100340.25;;;18.20;40.41